My Meet Scores
Gianna Zuccarello, Gymnastics X-Calibur - MyMeetScores.com
Top100 | Top Teams | Upcoming Meets | Completed Meets | Latest | Add Scores | Help| Support | Bookmark and Share

Gianna Zuccarello, Gymnastics X-Calibur
Personal Bests
LevelVault BarsBeamFloorAA
XG9.2759.700 9.6509.60037.900
XS9.4009.900 9.7009.70038.150
Scores on America's Top 100as of 10.26.2020
Year Level Vault Bars Beam Floor AA
2018 XS9.900

Click here to view our exclusive Top 100 Collection
Meet Scores
Date Meet Team Session Level Division Vault Bars Beam Floor AA
2020-02-21 Kinetic Classic Gymnastics X-Calibur 10 XG Younger 9.275 31T 9.700 13T 9.300 13T 9.425 20T 37.700 9
2020-01-31 LEgacy Elite Classic Gymnastics X-Calibur 5 XG Ch 8.800 4T 9.250 3T 9.025 6 9.025 7 36.100 3
2020-01-24 King Arthur Invitational Gymnastics X-Calibur 11 XG JR A 8.900 6T 9.350 8 8.900 11 9.475 6 36.625 7
2020-01-10 Leenda's Island Adventure Gymnastics X-Calibur GG9 XG 10 & Under 8.850 3 9.550 5 8.300 11T 9.000 12 35.700 6
2019-12-07 Home for the Holidays 2019 Gymnastics X-Calibur 5 XG Younger 8.900 7 9.400 2 8.550 5 9.225 3T 36.075 3
2019-11-08 Illinois Judges Cup Gymnastics X-Calibur P6 XG All Ages 9.000 13T 9.300 7T 8.875 10 9.450 6 36.625 6
2019-05-03 2019 Region 5 Xcel Championships Team Affirmed IL 05D XG All Ages 9.050 75T 9.175 63T 8.650 74 9.325 45T 36.200 76
2019-04-05 2019 Illinois XG, XP, XD State Championships Gymnastics X-Calibur 7 XG Ch B 9.150 8 9.575 3T 9.650 1T 9.525 3T 37.900 1
2019-02-22 Gasparilla Classic Gymnastics X-Calibur A6 XG XG a6 grp1 7.750 11 9.300 7 8.300 10 9.275 5 34.625 9
2019-02-15 Women's Midwest Open Gymnastics X-Calibur 10 XG Junior A 9.100 4T 8.650 11 8.525 13T 9.475 4 35.750 11
2019-02-08 Midwest Twisters Harley Meet Womens Gymnastics X-Calibur S05 XG 9 & under 8.650 3 9.375 1 9.050 1 9.600 1 36.675 1
2019-01-25 King Arthur Invitational Gymnastics X-Calibur 19 XG CH 9.125 4 9.400 1 8.450 14 9.450 7T 36.425 4
2019-01-04 Leenda's Island Adventure Gymnastics X-Calibur P07 XG 10 and Und 8.350 15 9.625 1T 9.125 4 9.125 2 36.225 2
2018-11-30 Ultimate Wish Classic Gymnastics X-Calibur 9 XG JR 8.750 12T 9.250 8 9.175 4T 8.900 14T 36.075 7
2018-04-26 Xcel Region 5 Championships Gymnastics X-Calibur 5B XS Ch A 9.300 2 9.825 1 9.625 2 9.400 2 38.150 1
2018-04-06 XCEL State Championships Gymnastics X-Calibur 2A XS Ch A 9.350 6T 9.100 21 9.650 1T 9.700 1 37.800 3
2018-03-01 Derby Classic 2018 Gymnastics X-Calibur 8A XS Jr A 9.200 2 9.775 1 9.475 1 9.575 1 38.025 1
2018-02-23 Kinetic Classic Gymnastics X-Calibur 5 XS Younger 9.000 33T 9.700 6 9.550 11 9.600 5T 37.850 9
2018-02-03 Midwest Games Gymnastics X-Calibur 2 XS JRA 9.250 1T 9.575 3 9.425 3 9.400 1 37.650 1
2018-01-26 King Arthur Invitational Gymnastics X-Calibur 10 XS JRA 8.850 8 9.900 2 9.375 3 9.550 1 37.675 2
2018-01-04 Leenda's Island Adventure Gymnastics X-Calibur G07 XS 9 & Under 9.400 3 9.700 2T 9.700 2 9.325 3 38.125 2
2017-12-01 Ultimate Wish Classic Gymnastics X-Calibur 14 XS JR1 8.300 18 9.550 6 9.525 2 9.500 6 36.875 7
Get your scores on
a t-shirt, pin, or hoodie

www.lazysuits.com